Tiempo atmosférico en la estación meteorológica de Eivissa Aeropuerto, Illes Balears (6 m.)

Fecha
DESCASC
Temp. máxima en grados centígrados (hora)
DESCASC
Temp. mínima en grados centígrados (hora)
DESCASC
Temp. media en grados centígrados
DESCASC
Racha de viento máxima en m/sg (hora)
DESCASC
Velocidad máxima media en intervalos de 10 minutos(hora)
DESCASC
Precipitaciones diarias en mm
DESCASC
Precipitaciones de 00:00 a 06:00 en mm
DESCASC
Precipitaciones de 06:00 a 12:00 en mm
DESCASC
Precipitaciones de 12:00 a 18:00 en mm
DESCASC
Precipitaciones de 18:00 a 24:00 en mm
DESCASC

Gráficas

Temp. máximas Temp. mínimas Temp. medias Precipitaciones Rachas de viento máximas Velocidades máximas media en intervalos de 10 minutos

Datos horarios

Fecha y hora oficial Temperatura (ºC) Velocidad del viento (km/h) Dirección del viento Racha (km/h) Dirección de racha Precipitación (mm) Presión (hPa) Tendencia (hPa) Humedad (%)
2017-11-23 23:00:00 17.2 16 Sudoeste 22 Sudoeste 0 1018.4 0.4 91
2017-11-23 22:00:00 15.2 13 Sudoeste 18 Sudoeste 0 1018.6 0.9 95
2017-11-23 21:00:00 16.5 13 Sudoeste 22 Sudoeste 0 1018.3 1 90
2017-11-23 20:00:00 15.7 11 Sudoeste 24 Sudoeste 0 1018 1.3 87
2017-11-23 19:00:00 16.8 14 Sudoeste 18 Sudoeste 0 1017.7 1.2 81
2017-11-23 18:00:00 16.6 12 Sudoeste 17 Sudoeste 0 1017.3 1 81
2017-11-23 17:00:00 18.1 14 Sudoeste 22 Sudoeste 0 1016.7 0.1 72
2017-11-23 16:00:00 19.2 20 Sudoeste 26 Sudoeste 0 1016.5 -0.4 69
2017-11-23 15:00:00 19.9 20 Sudoeste 28 Sudoeste 0 1016.3 -0.9 66
2017-11-23 14:00:00 19.9 22 Sudoeste 28 Sudoeste 0 1016.6 -0.7 68
2017-11-23 13:00:00 19.9 18 Sudoeste 26 Sudoeste 0 1016.9 0.1 65
2017-11-23 12:00:00 19.5 12 Sudeste 30 Este 0 1017.2 0.8 71
2017-11-23 11:00:00 18.7 7 Nordeste 28 Sudoeste 0 1017.3 1.8 73
2017-11-23 10:00:00 17 14 Sudoeste 21 Sudoeste 0 1016.8 1.9 86
2017-11-23 09:00:00 12.2 0 Calma 11 Noroeste 0 1016.4 1.8 99
2017-11-23 08:00:00 10.6 5 Noroeste 9 Noroeste 0 1015.5 1.5 99
2017-11-23 07:00:00 8.5 0 Calma -- -- 0 1014.9 0.8 98
2017-11-23 06:00:00 9.4 0 Calma -- -- 0 1014.6 0.5 98
2017-11-23 05:00:00 9 0 Calma -- -- 0 1014 0 98
2017-11-23 04:00:00 8.8 0 Calma -- -- 0 1014.1 0 97
2017-11-23 03:00:00 9.3 0 Calma -- -- 0 1014.1 -0.1 97
2017-11-23 02:00:00 9.4 0 Calma -- -- 0 1014 0.1 97
2017-11-23 01:00:00 10.1 0 Calma -- -- 0 1014.1 0.6 97
2017-11-23 00:00:00 10.4 0 Calma -- -- 0 1014.2 0.6 96
2017-11-22 23:00:00 10.5 0 Calma 8 Noroeste 0 1013.9 0.2 96
2017-11-22 22:00:00 11.1 0 Calma 13 Noroeste 0 1013.5 -0.2 93
2017-11-22 21:00:00 11.5 9 Noroeste 13 Noroeste 0 1013.6 -0.1 92
2017-11-22 20:00:00 11.7 4 Norte 11 Oeste 0 1013.7 0.1 92
2017-11-22 19:00:00 12.6 5 Norte 9 Sur 0 1013.7 0.2 89
2017-11-22 18:00:00 15.7 6 Sur 8 Sudeste 0 1013.7 0 79
2017-11-22 17:00:00 17.8 0 Calma 13 Sur 0 1013.6 -0.7 72
2017-11-22 16:00:00 19.4 9 Sur 18 Sur 0 1013.5 -1.4 63
2017-11-22 15:00:00 20 11 Sur 18 Sur 0 1013.7 -1.8 62
2017-11-22 14:00:00 19.6 12 Sudoeste 18 Sudoeste 0 1014.3 -1.9 62
2017-11-22 13:00:00 20.2 13 Sur 18 Sur 0 1014.9 -1.1 61
2017-11-22 12:00:00 20.5 13 Sur 21 Sur 0 1015.5 -0.5 60
2017-11-22 11:00:00 19.7 13 Sur 18 Sudeste 0 1016.2 0.6 66
2017-11-22 10:00:00 18.1 0 Calma 2 Sur 0 1016 0.3 77
2017-11-22 09:00:00 12.5 0 Calma -- -- 0 1016 0.3 98
2017-11-22 08:00:00 9.6 0 Calma 11 Norte 0 1015.6 -0.5 98
2017-11-22 07:00:00 9.3 0 Calma -- -- 0 1015.7 -0.9 98
2017-11-22 06:00:00 9.5 0 Calma -- -- 0 1015.7 -1.4 98
2017-11-22 05:00:00 9.8 0 Calma -- -- 0 1016.1 -0.9 98
2017-11-22 04:00:00 9 0 Calma -- -- 0 1016.6 -1.1 97
2017-11-22 03:00:00 9.3 0 Calma -- -- 0 1017.1 -1 97
2017-11-22 02:00:00 10.1 0 Calma -- -- 0 1017 -1.3 97
2017-11-22 01:00:00 10.2 0 Calma -- -- 0 1017.7 -0.7 97
2017-11-22 00:00:00 10.3 0 Calma -- -- 0 1018.1 -0.4 96
2017-11-21 23:00:00 10.7 0 Calma -- -- 0 1018.3 -0.1 96
2017-11-21 22:00:00 11.6 0 Calma 5 Noroeste 0 1018.4 0 94
2017-11-21 21:00:00 11.9 0 Calma 11 Norte 0 1018.5 0.1 92
2017-11-21 20:00:00 12.6 8 Noroeste 11 Norte 0 1018.4 -0.2 92
2017-11-21 19:00:00 14 2 Sudoeste 9 Sudoeste 0 1018.4 -0.4 89
2017-11-21 18:00:00 16.1 7 Sur 13 Sur 0 1018.4 -0.4 84
2017-11-21 17:00:00 18 9 Sudoeste 15 Sudoeste 0 1018.6 -0.5 75
2017-11-21 16:00:00 18.1 10 Sudoeste 18 Sur 0 1018.8 -0.7 72
2017-11-21 15:00:00 19.2 12 Sudoeste 18 Sur 0 1018.8 -1.4 70
2017-11-21 14:00:00 19.2 14 Sudoeste 21 Sudoeste 0 1019.1 -1.5 71
2017-11-21 13:00:00 19.3 13 Sudoeste 18 Sudoeste 0 1019.5 -1.2 73
2017-11-21 12:00:00 19.4 10 Sur 17 Sur 0 1020.2 -0.3 71
2017-11-21 11:00:00 18.7 10 Sudoeste 13 Oeste 0 1020.6 0.5 74
2017-11-21 10:00:00 16.9 0 Calma -- -- 0 1020.7 0.7 85
2017-11-21 09:00:00 13.3 0 Calma -- -- 0 1020.5 0.8 96
2017-11-21 08:00:00 11.5 0 Calma -- -- 0 1020.1 0.3 96
2017-11-21 07:00:00 11.2 0 Calma -- -- 0 1020 0 97
2017-11-21 06:00:00 11.4 0 Calma -- -- 0 1019.7 -0.5 96
2017-11-21 05:00:00 11.1 0 Calma -- -- 0 1019.8 -0.5 95
2017-11-21 04:00:00 11.3 0 Calma -- -- 0 1020 -0.7 96
2017-11-21 03:00:00 11.6 0 Calma -- -- 0 1020.2 -0.8 96
2017-11-21 02:00:00 11.8 0 Calma -- -- 0 1020.3 -1 95
2017-11-21 01:00:00 11.7 0 Calma -- -- 0 1020.7 -0.8 95
2017-11-21 00:00:00 11.7 0 Calma -- -- 0 1021 -0.5 94
2017-11-20 23:00:00 12.1 0 Calma 9 Norte 0 1021.3 0.1 93
2017-11-20 22:00:00 12.4 7 Norte 11 Norte 0 1021.5 0.8 90
2017-11-20 21:00:00 12.7 8 Norte 11 Norte 0 1021.5 1 90
2017-11-20 20:00:00 13.2 2 Norte 15 Sur 0 1021.2 0.9 87
2017-11-20 19:00:00 16.6 10 Sur 17 Sur 0 1020.7 0.2 75
2017-11-20 18:00:00 16.9 11 Sur 17 Sur 0 1020.5 -0.1 76
2017-11-20 17:00:00 18.1 10 Sudoeste 15 Sudoeste 0 1020.3 -0.9 73
2017-11-20 16:00:00 18.7 11 Sudoeste 18 Sudoeste 0 1020.5 -1.1 73
2017-11-20 15:00:00 19.2 14 Sudoeste 21 Sur 0 1020.6 -1.5 71
2017-11-20 14:00:00 19.2 15 Sudoeste 24 Sudoeste 0 1021.2 -1 71
2017-11-20 13:00:00 19.6 13 Sudoeste 21 Sudoeste 0 1021.6 -0.4 69
2017-11-20 12:00:00 19.1 14 Sudoeste 21 Sudoeste 0 1022.1 1 72
2017-11-20 11:00:00 18 0 Calma -- -- 0 1022.2 1.6 79
2017-11-20 10:00:00 13.4 0 Calma -- -- 0 1022 1.8 97
2017-11-20 09:00:00 11.8 0 Calma -- -- 0 1021.1 0.8 98
2017-11-20 08:00:00 10.6 0 Calma -- -- 0 1020.6 0.3 98
2017-11-20 07:00:00 9 0 Calma -- -- 0 1020.2 -0.2 98
2017-11-20 06:00:00 10 0 Calma -- -- 0 1020.3 0 98
2017-11-20 05:00:00 10.9 0 Calma -- -- 0 1020.3 0 98
2017-11-20 04:00:00 10.3 0 Calma -- -- 0 1020.4 -0.1 99
2017-11-20 03:00:00 10.2 0 Calma -- -- 0 1020.3 -0.3 97
2017-11-20 02:00:00 10.4 0 Calma -- -- 0 1020.3 -0.1 97
2017-11-20 01:00:00 10.3 0 Calma 5 Nordeste 0 1020.5 0 97
2017-11-20 00:00:00 9.4 0 Calma 9 Noroeste 0 1020.6 0.6 96
2017-11-19 23:00:00 11.1 0 Calma 5 Norte 0 1020.4 0.6 95
2017-11-19 22:00:00 11.1 2 Norte 11 Norte 0 1020.5 1.3 94
2017-11-19 21:00:00 11.9 0 Calma 5 Norte 0 1020 1.3 90
2017-11-19 20:00:00 11.9 0 Calma 11 Noroeste 0 1019.8 1.4 91
2017-11-19 19:00:00 13.1 9 Noroeste 11 Sudoeste 0 1019.2 1.1 88
2017-11-19 18:00:00 15 10 Sudoeste 15 Sudoeste 0 1018.7 0.4 82
2017-11-19 17:00:00 17.6 11 Sudoeste 21 Sudoeste 0 1018.4 -0.2 72
2017-11-19 16:00:00 18.5 13 Sudoeste 21 Sudoeste 0 1018.1 -1.2 70
2017-11-19 15:00:00 19.1 14 Sudoeste 22 Sudoeste 0 1018.3 -1.3 68
2017-11-19 14:00:00 19 14 Sudoeste 21 Sudoeste 0 1018.6 -1.2 66
2017-11-19 13:00:00 18.9 13 Sudoeste 22 Sudoeste 0 1019.3 -0.5 67
2017-11-19 12:00:00 18.8 10 Sur 17 Sur 0 1019.6 0.2 67
2017-11-19 11:00:00 18.3 7 Sur 11 Sudoeste 0 1019.8 0.8 72
2017-11-19 10:00:00 16.3 0 Calma -- -- 0 1019.8 1.3 87
2017-11-19 09:00:00 12.1 0 Calma 5 Norte 0 1019.4 1.2 98
2017-11-19 08:00:00 9.4 0 Calma 8 Norte 0 1019 0.7 98
2017-11-19 07:00:00 9.8 7 Noroeste 9 Norte 0 1018.5 0.2 98
2017-11-19 06:00:00 9.6 0 Calma -- -- 0 1018.2 -0.2 98
2017-11-19 05:00:00 9.2 0 Calma -- -- 0 1018.3 -0.1 98
2017-11-19 04:00:00 9.7 0 Calma 4 Noroeste 0 1018.3 -0.4 96
2017-11-19 03:00:00 10.2 0 Calma 8 Noroeste 0 1018.4 -0.6 97
2017-11-19 02:00:00 9.4 0 Calma 4 Noroeste 0 1018.4 -0.6 97
2017-11-19 01:00:00 10.3 0 Calma 5 Norte 0 1018.7 -0.3 96
2017-11-19 00:00:00 10.3 0 Calma 9 Noroeste 0 1019 0.4 95
2017-11-18 23:00:00 10.2 0 Calma -- -- 0 1019 0.5 94
2017-11-18 22:00:00 11.2 4 Norte 8 Norte 0 1019 1 92
2017-11-18 21:00:00 11.2 4 Norte 9 Noroeste 0 1018.6 0.9 91
2017-11-18 20:00:00 12.3 8 Noroeste 11 Norte 0 1018.5 1.1 88
2017-11-18 19:00:00 12.5 3 Noroeste 8 Noroeste 0 1018 0.9 86
2017-11-18 18:00:00 15.2 3 Sudoeste 11 Sudoeste 0 1017.7 0.7 78
2017-11-18 17:00:00 17.9 7 Sudoeste 17 Sudoeste 0 1017.4 0.2 68
2017-11-18 16:00:00 18.9 11 Sudoeste 18 Sudoeste 0 1017.1 -0.5 66
2017-11-18 15:00:00 19.2 14 Sudoeste 21 Sur 0 1017 -1.1 65
2017-11-18 14:00:00 19.2 14 Sudoeste 21 Sur 0 1017.2 -1.1 65
2017-11-18 13:00:00 19.1 12 Sudoeste 17 Sur 0 1017.6 -0.4 67
2017-11-18 12:00:00 17.7 9 Sudoeste 13 Sudoeste 0 1018.1 0.4 75
2017-11-18 11:00:00 16.6 3 Este 9 Nordeste 0 1018.3 1.1 85
2017-11-18 10:00:00 16.3 0 Calma -- -- 0 1018 0.9 83
2017-11-18 09:00:00 11.5 0 Calma -- -- 0 1017.7 1 98
2017-11-18 08:00:00 8.7 0 Calma -- -- 0 1017.2 0.5 98
2017-11-18 07:00:00 8.1 0 Calma -- -- 0 1017.1 0.2 98
2017-11-18 06:00:00 8.3 0 Calma -- -- 0 1016.7 -0.5 98
2017-11-18 05:00:00 8.4 0 Calma -- -- 0 1016.7 -0.8 97
2017-11-18 04:00:00 8.5 5 Norte 8 Norte 0 1016.9 -0.8 97
2017-11-18 03:00:00 8.5 0 Calma -- -- 0 1017.2 -0.6 96
2017-11-18 02:00:00 9.1 0 Calma 9 Norte 0 1017.5 -0.3 95
2017-11-18 01:00:00 9.1 0 Calma -- -- 0 1017.7 0 95
2017-11-18 00:00:00 10 0 Calma -- -- 0 1017.8 0.4 94
2017-11-17 23:00:00 9.8 0 Calma 13 Noroeste 0 1017.8 0.4 93
2017-11-17 22:00:00 10.4 0 Calma -- -- 0 1017.7 0.8 92
2017-11-17 21:00:00 11.2 3 Noroeste 9 Noroeste 0 1017.4 0.9 88
2017-11-17 20:00:00 12.9 2 Oeste 8 Noroeste 0 1017.4 0.9 86
2017-11-17 19:00:00 14.5 0 Calma 8 Oeste 0 1016.9 0.2 81
2017-11-17 18:00:00 14.8 6 Oeste 18 Noroeste 0 1016.5 -0.3 78
2017-11-17 17:00:00 17 11 Noroeste 22 Noroeste 0 1016.5 -0.9 70
2017-11-17 16:00:00 17.9 12 Oeste 22 Oeste 0 1016.7 -1 64
2017-11-17 15:00:00 19.2 13 Noroeste 22 Oeste 0 1016.8 -1.5 56
2017-11-17 14:00:00 18.1 13 Oeste 24 Sudoeste 0 1017.4 -1.1 62
2017-11-17 13:00:00 19.1 17 Sudoeste 26 Sudoeste 0 1017.7 -0.7 62
2017-11-17 12:00:00 18.8 14 Sur 21 Sur 0 1018.3 0 63
2017-11-17 11:00:00 18.2 10 Sur 13 Sur 0 1018.5 0.5 67
2017-11-17 10:00:00 15.8 0 Calma -- -- 0 1018.4 0.7 83
2017-11-17 09:00:00 12 0 Calma 5 Norte 0 1018.3 0.9 93
2017-11-17 08:00:00 9.7 4 Norte 9 Norte 0 1018 0.3 96
2017-11-17 07:00:00 8.8 0 Calma 8 Norte 0 1017.7 -0.1 98
2017-11-17 06:00:00 7.9 0 Calma 9 Norte 0 1017.4 -0.5 97
2017-11-17 05:00:00 8.8 0 Calma 2 Norte 0 1017.7 -0.4 96
2017-11-17 04:00:00 8.7 0 Calma 8 Oeste 0 1017.8 -0.7 96
2017-11-17 03:00:00 8 0 Calma 8 Noroeste 0 1017.9 -0.9 96
2017-11-17 02:00:00 8.6 0 Calma 9 Noroeste 0 1018.1 -0.7 94
2017-11-17 01:00:00 9.4 0 Calma 5 Este 0 1018.5 -0.3 95
2017-11-17 00:00:00 9.3 0 Calma 9 Noroeste 0 1018.8 0.5 93
2017-11-16 23:00:00 10.1 4 Noroeste 9 Noroeste 0 1018.8 0.9 90
2017-11-16 22:00:00 10.2 0 Calma 5 Norte 0 1018.8 1.4 88
2017-11-16 21:00:00 10 0 Calma 8 Norte 0 1018.3 1.2 89
2017-11-16 20:00:00 11.5 0 Calma 13 Noroeste 0 1017.9 0.8 84
2017-11-16 19:00:00 13.4 11 Noroeste 15 Oeste 0 1017.4 0.4 79
2017-11-16 18:00:00 14.7 10 Oeste 15 Sudoeste 0 1017.1 0 76
2017-11-16 17:00:00 17.9 12 Sudoeste 18 Sudoeste 0 1017.1 -0.1 60
2017-11-16 16:00:00 18.6 14 Sudoeste 21 Sudoeste 0 1017 -0.8 62
2017-11-16 15:00:00 19 16 Sudoeste 24 Sudoeste 0 1017.1 -1.1 57
2017-11-16 14:00:00 19.1 16 Sudoeste 24 Sudoeste 0 1017.2 -1.3 60
2017-11-16 13:00:00 19.1 15 Sudoeste 21 Sudoeste 0 1017.8 -0.2 62
2017-11-16 12:00:00 18.9 13 Sudoeste 21 Sudoeste 0 1018.2 0.6 64
2017-11-16 11:00:00 17.2 4 Sur 11 Sudoeste 0 1018.5 1.4 71
2017-11-16 10:00:00 16.6 0 Calma 4 Noroeste 0 1018 1.5 74
2017-11-16 09:00:00 12.1 0 Calma 13 Oeste 0 1017.6 1.2 90
2017-11-16 08:00:00 9.4 0 Calma -- -- 0 1017.1 0.9 94
2017-11-16 07:00:00 9.4 0 Calma -- -- 0 1016.5 0.1 94
2017-11-16 06:00:00 8.3 0 Calma 9 Norte 0 1016.4 -0.3 95
2017-11-16 05:00:00 8.5 0 Calma 9 Norte 0 1016.2 -0.4 93
2017-11-16 04:00:00 9.3 5 Norte 11 Norte 0 1016.4 -0.6 91
2017-11-16 03:00:00 8.6 9 Norte 11 Norte 0 1016.7 -0.4 93
2017-11-16 02:00:00 9 4 Norte 9 Noroeste 0 1016.6 -0.6 91
2017-11-16 01:00:00 9.3 3 Norte 11 Norte 0 1017 -0.2 89
2017-11-16 00:00:00 9 4 Norte 9 Norte 0 1017.1 0.2 89
2017-11-15 23:00:00 9.1 0 Calma 11 Noroeste 0 1017.2 0.3 87
2017-11-15 22:00:00 9.5 4 Norte 13 Norte 0 1017.2 0.8 85
2017-11-15 21:00:00 9.5 5 Norte 11 Norte 0 1016.9 0.8 84
2017-11-15 20:00:00 10.3 9 Norte 13 Noroeste 0 1016.9 1 79
2017-11-15 19:00:00 11.2 6 Norte 18 Sudoeste 0 1016.4 0.5 76
2017-11-15 18:00:00 13.9 10 Sudoeste 22 Oeste 0 1016.1 0 68
2017-11-15 17:00:00 16.4 17 Sudoeste 28 Oeste 0 1015.9 -0.6 56
2017-11-15 16:00:00 17.4 21 Sudoeste 33 Sudoeste 0 1015.9 -1.3 54
2017-11-15 15:00:00 17.9 23 Sudoeste 32 Sudoeste 0 1016.1 -1.9 51
2017-11-15 14:00:00 17.8 21 Sudoeste 32 Sudoeste 0 1016.5 -2.2 51
2017-11-15 13:00:00 17.6 21 Sudoeste 32 Sudoeste 0 1017.2 -1.4 53
2017-11-15 12:00:00 17.5 19 Sudoeste 30 Sudoeste 0 1018 -0.4 51
2017-11-15 11:00:00 16.9 20 Sudoeste 30 Sudoeste 0 1018.7 0.6 54
2017-11-15 10:00:00 15.4 12 Sudoeste 21 Sudoeste 0 1018.6 0.9 52
2017-11-15 09:00:00 10.7 0 Calma -- -- 0 1018.4 0.9 74
2017-11-15 08:00:00 6.6 0 Calma -- -- 0 1018.1 0.4 84
2017-11-15 07:00:00 5.7 0 Calma -- -- 0 1017.7 -0.2 88
2017-11-15 06:00:00 6.3 0 Calma 5 Oeste 0 1017.5 -0.4 88
2017-11-15 05:00:00 6.8 0 Calma 9 Oeste 0 1017.7 -0.3 85
2017-11-15 04:00:00 7.3 3 Sudoeste 11 Noroeste 0 1017.9 -0.3 83
2017-11-15 03:00:00 7.8 0 Calma 11 Noroeste 0 1017.9 -0.6 80
2017-11-15 02:00:00 8.5 4 Noroeste 13 Oeste 0 1018 -0.4 80
2017-11-15 01:00:00 7.3 0 Calma -- -- 0 1018.2 -0.3 84
2017-11-15 00:00:00 8 0 Calma 11 Noroeste 0 1018.5 0.2 80
2017-11-14 23:00:00 7.9 2 Noroeste 9 Sur 0 1018.4 0.5 80
2017-11-14 22:00:00 8.6 6 Norte 13 Norte 0 1018.5 1 77
2017-11-14 21:00:00 8.8 10 Norte 32 Norte 0 1018.3 1.6 76
2017-11-14 20:00:00 9.9 11 Norte 13 Norte 0 1017.9 1.6 72
2017-11-14 19:00:00 10.7 9 Norte 15 Norte 0 1017.5 1.4 69
2017-11-14 18:00:00 12.8 6 Norte 22 Nordeste 0 1016.7 0.8 61
2017-11-14 17:00:00 14.9 11 Nordeste 22 Norte 0 1016.3 0.5 53
2017-11-14 16:00:00 15.6 11 Norte 28 Norte 0 1016.1 0 47
2017-11-14 15:00:00 15.6 17 Norte 33 Norte 0 1015.9 -0.4 44
2017-11-14 14:00:00 16.2 17 Norte 33 Norte 0 1015.8 -0.7 42
2017-11-14 13:00:00 16.2 19 Norte 30 Nordeste 0 1016.1 -0.2 44
2017-11-14 12:00:00 15.5 17 Norte 28 Nordeste 0 1016.3 0.5 49
2017-11-14 11:00:00 15.9 12 Noroeste 22 Nordeste 0 1016.5 1.2 50
2017-11-14 10:00:00 14.8 10 Norte 21 Norte 0 1016.3 1.7 50
2017-11-14 09:00:00 11 4 Sur 8 Sur 0 1015.8 1.8 67
2017-11-14 08:00:00 9.3 0 Calma 18 Sudoeste 0 1015.3 1.5 68
2017-11-14 07:00:00 9.9 4 Sudeste 26 Norte 0 1014.6 0.6 64
2017-11-14 06:00:00 11.2 18 Norte 28 Norte 0 1014 -0.1 61
2017-11-14 05:00:00 10.5 13 Norte 18 Norte 0 1013.8 0 66
2017-11-14 04:00:00 11 12 Norte 24 Norte 0 1014 0.3 64
2017-11-14 03:00:00 11.4 9 Norte 28 Norte 0 1014.1 0.3 61
2017-11-14 02:00:00 11.3 11 Norte 18 Norte 0 1013.8 0.1 62
2017-11-14 01:00:00 9.4 5 Norte 13 Norte 0 1013.7 0.2 64
2017-11-14 00:00:00 10.8 7 Oeste 15 Noroeste 0 1013.8 0.4 57
2017-11-13 23:00:00 10.8 0 Calma 2 Oeste 0 1013.7 0 56
2017-11-13 22:00:00 10.7 0 Calma -- -- 0 1013.5 -0.1 55
2017-11-13 21:00:00 8.1 0 Calma 8 Oeste 0 1013.4 0.2 81
2017-11-13 20:00:00 10.2 0 Calma 11 Oeste 0 1013.7 1.1 82
2017-11-13 19:00:00 10.1 8 Noroeste 11 Noroeste 0 1013.6 1.2 87
2017-11-13 18:00:00 12.1 2 Noroeste 15 Norte 0 1013.2 1.1 82
2017-11-13 17:00:00 13.3 9 Este 24 Este 0 1012.6 0.7 79
2017-11-13 16:00:00 14.1 20 Nordeste 30 Este 0 1012.4 0.3 72
2017-11-13 15:00:00 14.7 20 Nordeste 28 Nordeste 0 1012.1 0.1 73
2017-11-13 14:00:00 14.5 18 Este 37 Norte 0 1011.9 -0.1 74
2017-11-13 13:00:00 16.2 24 Norte 45 Norte 0 1012.1 0.4 52
2017-11-13 12:00:00 17.4 27 Norte 50 Norte 0 1012 0.9 45
2017-11-13 11:00:00 16.6 25 Noroeste 52 Noroeste 0 1012 1.4 47
2017-11-13 10:00:00 16.5 24 Norte 42 Norte 0 1011.7 2.4 46
2017-11-13 09:00:00 16.6 22 Norte 42 Norte 0 1011.1 2.4 47
2017-11-13 08:00:00 16.3 20 Norte 48 Norte 0 1010.6 2.2 48
2017-11-13 07:00:00 16.5 10 Norte 21 Norte 0 1009.3 0.8 64
2017-11-13 06:00:00 16.5 12 Noroeste 26 Noroeste 0 1008.7 -0.4 61
2017-11-13 05:00:00 16 3 Oeste 21 Noroeste 0 1008.4 -1.2 61
2017-11-13 04:00:00 17.2 13 Noroeste 26 Noroeste 0 1008.5 -1.9 64
2017-11-13 03:00:00 17.1 14 Oeste 26 Noroeste 0 1009.1 -1.5 66
2017-11-13 02:00:00 14.9 14 Oeste 22 Oeste 0 1009.6 -1.6 79
2017-11-13 01:00:00 13.7 10 Noroeste 13 Noroeste 0 1010.4 -1.5 89
2017-11-13 00:00:00 15.2 9 Noroeste 18 Oeste 0 1010.6 -1.6 83
2017-11-12 23:00:00 15 8 Oeste 15 Oeste 0 1011.2 -1.5 86
2017-11-12 22:00:00 16 9 Noroeste 26 Oeste 0 1011.9 -0.9 82
2017-11-12 21:00:00 16.1 15 Oeste 24 Oeste 0 1012.2 -0.5 78
2017-11-12 20:00:00 15 13 Oeste 18 Oeste 0 1012.7 -0.1 78
2017-11-12 19:00:00 15 6 Oeste 17 Sudoeste 0 1012.8 -0.3 77
2017-11-12 18:00:00 16.3 13 Sudoeste 21 Oeste 0 1012.7 -1 74
2017-11-12 17:00:00 18.3 16 Sudoeste 28 Sudoeste 0 1012.8 -1.8 65
2017-11-12 16:00:00 19.4 20 Sudoeste 28 Sudoeste 0 1013.1 -2.1 61
2017-11-12 15:00:00 20.4 10 Oeste 26 Norte 0 1013.7 -2.4 48
2017-11-12 14:00:00 20.2 6 Noroeste 26 Noroeste 0 1014.6 -1.9 52
2017-11-12 13:00:00 20.5 14 Noroeste 24 Noroeste 0 1015.2 -1.6 48
2017-11-12 12:00:00 20.3 13 Noroeste 18 Noroeste 0 1016.1 -0.9 54
2017-11-12 11:00:00 19.8 8 Noroeste 17 Norte 0 1016.5 -0.3 57
2017-11-12 10:00:00 18.7 0 Calma 13 Norte 0 1016.8 0.2 62
2017-11-12 09:00:00 15 0 Calma 9 Norte 0 1017 0.2 80
2017-11-12 08:00:00 11.1 4 Norte 9 Norte 0 1016.8 0 91
2017-11-12 07:00:00 10.8 0 Calma 8 Noroeste 0 1016.6 -0.4 96
2017-11-12 06:00:00 9.8 0 Calma 8 Norte 0 1016.8 -0.7 93
2017-11-12 05:00:00 10.5 4 Nordeste 8 Noroeste 0 1016.8 -1 94
2017-11-12 04:00:00 10.7 8 Norte 9 Noroeste 0 1017 -1.4 94
2017-11-12 03:00:00 12.7 3 Noroeste 11 Noroeste 0 1017.5 -1.5 93
2017-11-12 02:00:00 11.7 2 Noroeste 8 Oeste 0 1017.8 -1.6 92
2017-11-12 01:00:00 11.9 4 Oeste 13 Noroeste 0 1018.4 -1.7 88
2017-11-12 00:00:00 13.5 12 Noroeste 13 Noroeste 0 1019 -1 83
2017-11-11 23:00:00 13.2 6 Oeste 18 Oeste 0 1019.4 -0.7 82
2017-11-11 22:00:00 12.2 0 Calma 13 Oeste 0 1020.1 0.2 83
2017-11-11 21:00:00 12.7 4 Noroeste 17 Oeste 0 1020 0.1 79
2017-11-11 20:00:00 13.5 12 Noroeste 15 Oeste 0 1020.1 0.3 76
2017-11-11 19:00:00 13.7 6 Noroeste 15 Oeste 0 1019.9 0.1 76
2017-11-11 18:00:00 16.2 7 Oeste 18 Oeste 0 1019.9 0 66
2017-11-11 17:00:00 18.9 12 Sudoeste 18 Noroeste 0 1019.8 -0.1 60
2017-11-11 16:00:00 19.2 10 Noroeste 24 Noroeste 0 1019.8 -0.7 54
2017-11-11 15:00:00 19.8 18 Noroeste 30 Noroeste 0 1019.9 -1.1 52
2017-11-11 14:00:00 20.4 12 Noroeste 28 Norte 0 1019.9 -1.3 55
2017-11-11 13:00:00 19.9 14 Noroeste 28 Noroeste 0 1020.5 -0.6 53
2017-11-11 12:00:00 19.4 12 Noroeste 28 Noroeste 0 1021 -0.1 57
2017-11-11 11:00:00 18.7 14 Noroeste 33 Norte 0 1021.2 0.3 59
2017-11-11 10:00:00 18.3 15 Norte 22 Noroeste 0 1021.1 0.5 63
2017-11-11 09:00:00 16.9 6 Noroeste 22 Norte 0 1021.1 0.8 66
2017-11-11 08:00:00 10.5 3 Este 11 Noroeste 0 1020.9 0.2 82
2017-11-11 07:00:00 9.8 4 Sudoeste 11 Noroeste 0 1020.6 -0.6 82
2017-11-11 06:00:00 7.9 6 Sudoeste 11 Noroeste 0 1020.3 -1.2 86
2017-11-11 05:00:00 8.4 0 Calma 9 Noroeste 0 1020.7 -1 87
2017-11-11 04:00:00 9.2 5 Noroeste 9 Noroeste 0 1021.2 -1.2 83
2017-11-11 03:00:00 9.3 6 Noroeste 9 Oeste 0 1021.5 -1.4 84
2017-11-11 02:00:00 8.6 0 Calma 9 Noroeste 0 1021.7 -1.6 86
2017-11-11 01:00:00 8.8 0 Calma -- -- 0 1022.4 -1 83
2017-11-11 00:00:00 9.1 0 Calma 9 Noroeste 0 1022.9 0.1 81
2017-11-10 23:00:00 8.6 0 Calma 15 Oeste 0 1023.3 0.5 82
2017-11-10 22:00:00 9 0 Calma 13 Noroeste 0 1023.4 1.1 82
2017-11-10 21:00:00 9.8 2 Este 9 Sudeste 0 1022.8 0.5 79
2017-11-10 20:00:00 10.3 8 Noroeste 15 Noroeste 0 1022.8 0.9 78
2017-11-10 19:00:00 11.4 6 Noroeste 13 Oeste 0 1022.3 0.7 73
2017-11-10 18:00:00 13.7 5 Norte 21 Norte 0 1022.3 0.6 63
2017-11-10 17:00:00 15.5 13 Norte 28 Norte 0 1021.9 0.3 55
2017-11-10 16:00:00 16.4 14 Norte 32 Norte 0 1021.6 -0.5 52
2017-11-10 15:00:00 16.6 21 Norte 35 Noroeste 0 1021.7 -1.2 53
2017-11-10 14:00:00 16.7 24 Noroeste 39 Norte 0 1021.6 -1.6 51
2017-11-10 13:00:00 16.6 23 Norte 33 Norte 0 1022.1 -0.9 56
2017-11-10 12:00:00 14.5 3 Este 9 Este 0 1022.9 0.3 69
2017-11-10 11:00:00 11.4 5 Noroeste 26 Nordeste 0.1 1023.2 1.8 86
2017-11-10 10:00:00 10.6 0 Calma 9 Norte 0.1 1023 1.7 93
2017-11-10 09:00:00 10.5 7 Nordeste 13 Nordeste 0.6 1022.6 1.3 91
2017-11-10 08:00:00 8.8 0 Calma 15 Noroeste 0 1021.4 0.3 89
2017-11-10 07:00:00 10 2 Norte 30 Nordeste 0 1021.3 0.2 83
2017-11-10 06:00:00 10.1 6 Norte 11 Norte 0 1021.3 0.9 84
2017-11-10 05:00:00 10.2 4 Sur 21 Norte 0 1021.1 -0.1 88
2017-11-10 04:00:00 10 10 Nordeste 41 Nordeste 0.9 1021.1 0.2 91
2017-11-10 03:00:00 8.9 0 Calma 9 Noroeste 0 1020.4 -0.5 92
2017-11-10 02:00:00 10.7 4 Norte 22 Nordeste 0.2 1021.2 0.1 85
2017-11-10 01:00:00 8.6 0 Calma 9 Oeste 0 1020.9 0 83
2017-11-10 00:00:00 8.3 0 Calma -- -- 0 1020.9 0.2 82
2017-11-09 23:00:00 8.2 0 Calma 8 Norte 0 1021.1 0.5 81
2017-11-09 22:00:00 8.6 5 Noroeste 15 Noroeste 0 1020.9 0.8 79
2017-11-09 21:00:00 9 0 Calma 13 Noroeste 0 1020.7 0.9 77
2017-11-09 20:00:00 10.2 10 Noroeste 13 Noroeste 0 1020.6 1.3 72
2017-11-09 19:00:00 11.7 7 Oeste 13 Norte 0 1020.1 0.8 66
2017-11-09 18:00:00 13.1 7 Norte 26 Noroeste 0 1019.8 0.5 61
2017-11-09 17:00:00 14.9 13 Norte 32 Norte 0 1019.3 -0.1 56
2017-11-09 16:00:00 15.4 17 Norte 35 Norte 0 1019.3 0 54
2017-11-09 15:00:00 15.8 23 Norte 33 Norte 0 1019.3 -0.5 54
2017-11-09 14:00:00 15.9 19 Norte 35 Noroeste 0 1019.4 -0.3 55
2017-11-09 13:00:00 15.8 17 Norte 30 Nordeste 0 1019.3 -0.2 58
2017-11-09 12:00:00 14.7 11 Norte 30 Norte 0.2 1019.8 0.6 67
2017-11-09 11:00:00 15.3 21 Norte 33 Nordeste 0 1019.7 1.2 58
2017-11-09 10:00:00 13.7 18 Norte 41 Norte 0.2 1019.5 1.3 73
2017-11-09 09:00:00 13.6 21 Norte 32 Norte 0 1019.2 1 62
2017-11-09 08:00:00 12.2 15 Norte 24 Norte 0 1018.5 0.4 66
2017-11-09 07:00:00 12.7 14 Norte 32 Noroeste 0 1018.2 -- 59
2017-11-09 06:00:00 12.6 0 Calma 22 Norte 0 1018.2 -- 64
2017-11-09 05:00:00 13.2 10 Norte -- -- -- 1018.1 -- 58
2017-11-09 04:00:00 -- -- -- -- -- -- -- -- --
2017-11-09 03:00:00 -- -- -- -- -- -- -- -- --
2017-11-09 02:00:00 -- -- -- -- -- -- -- -- --
2017-11-09 01:00:00 -- -- -- -- -- -- -- -- --
2017-11-09 00:00:00 12.3 7 Norte 13 Norte 0 1018.9 0.1 67
2017-11-08 23:00:00 11.6 5 Norte 9 Nordeste 0 1018.9 0.2 72
2017-11-08 22:00:00 10.5 0 Calma 11 Oeste 0 1019 0.8 74
2017-11-08 21:00:00 10.6 8 Noroeste 13 Oeste 0 1018.8 0.9 73
2017-11-08 20:00:00 11.2 0 Calma 11 Norte 0 1018.7 1.1 69
2017-11-08 19:00:00 12 9 Norte -- -- 0 1018.2 0.6 67
2017-11-08 18:00:00 14.9 6 Norte 22 Nordeste 0 1017.9 0.3 54
2017-11-08 17:00:00 17.3 15 Norte 26 Norte 0 1017.6 0.1 46
2017-11-08 16:00:00 18.1 9 Norte 32 Norte 0 1017.6 -0.5 45
2017-11-08 15:00:00 17.9 15 Norte 33 Norte 0 1017.6 -0.9 47
2017-11-08 14:00:00 18.9 21 Norte 37 Norte 0 1017.5 -1.3 47
2017-11-08 13:00:00 19 18 Norte 35 Norte 0 1018.1 -0.4 46
2017-11-08 12:00:00 18.9 21 Norte 37 Norte 0 1018.5 0.4 45
2017-11-08 11:00:00 18.7 18 Noroeste 32 Noroeste 0 1018.8 1.2 44
2017-11-08 10:00:00 18 17 Norte 35 Norte 0 1018.5 1.3 53
2017-11-08 09:00:00 16.8 9 Norte 21 Noroeste 0 1018.1 0.9 60
2017-11-08 08:00:00 12 5 Este 11 Norte 0 1017.6 1 78
2017-11-08 07:00:00 11.8 0 Calma -- -- 0 1017.2 0.6 76
2017-11-08 06:00:00 10 0 Calma 9 Norte 0 1017.2 0.2 87
2017-11-08 05:00:00 9.5 0 Calma 11 Oeste 0 1016.6 -0.4 86
2017-11-08 04:00:00 9.3 0 Calma 8 Oeste 0 1016.6 -0.4 88
2017-11-08 03:00:00 10.6 5 Noroeste 15 Oeste 0 1017 0.1 83
2017-11-08 02:00:00 12.3 8 Noroeste 24 Sudoeste 0 1017 0.2 77
2017-11-08 01:00:00 15 16 Sudoeste 26 Sudoeste 0 1017 0.1 67
2017-11-08 00:00:00 12 13 Sudoeste 22 Sudoeste 0 1016.9 0.4 74
2017-11-07 23:00:00 11.6 12 Oeste 17 Sudoeste 0 1016.8 0.3 70
2017-11-07 22:00:00 11.9 10 Oeste 22 Sudoeste 0 1016.9 0.4 67
2017-11-07 21:00:00 13.7 17 Sudoeste 28 Oeste 0 1016.5 0.4 58
2017-11-07 20:00:00 11 7 Oeste 13 Oeste 0 1016.5 0.5 66
2017-11-07 19:00:00 11.1 9 Oeste 13 Oeste 0 1016.5 0.5 65
2017-11-07 18:00:00 13.6 10 Sudoeste 17 Oeste 0 1016.1 0.3 53
2017-11-07 17:00:00 15.8 11 Oeste 24 Sudoeste 0 1016 0.2 45
2017-11-07 16:00:00 16.6 18 Sudoeste 26 Sudoeste 0 1016 0.1 44
2017-11-07 15:00:00 17.1 10 Oeste 24 Sudoeste 0.2 1015.8 -0.6 41
2017-11-07 14:00:00 16.9 5 Noroeste 26 Noroeste 0 1015.8 -0.8 40
2017-11-07 13:00:00 16.9 14 Oeste 33 Noroeste 0 1015.9 -0.3 40
2017-11-07 12:00:00 16.4 13 Norte 30 Norte 0 1016.4 0.4 42
2017-11-07 11:00:00 16 20 Noroeste 30 Noroeste 0 1016.6 1 43
2017-11-07 10:00:00 15.2 11 Noroeste 18 Noroeste 0 1016.2 1.3 49
2017-11-07 09:00:00 11.9 2 Sudoeste 8 Noroeste 0 1016 1.3 66
2017-11-07 08:00:00 8.8 9 Noroeste 15 Norte 0 1015.6 0.9 74
2017-11-07 07:00:00 8.7 7 Norte 11 Norte 0 1014.9 0.4 74
2017-11-07 06:00:00 10.4 9 Noroeste 17 Norte 0 1014.7 -0.1 66
2017-11-07 05:00:00 11.3 10 Norte 22 Noroeste 0 1014.7 -0.3 62
2017-11-07 04:00:00 11.7 11 Noroeste 21 Noroeste 0 1014.5 -0.7 61
2017-11-07 03:00:00 11.7 9 Norte 18 Noroeste 0 1014.8 -0.6 63
2017-11-07 02:00:00 11.2 11 Noroeste 15 Noroeste 0 1015 -0.4 65
2017-11-07 01:00:00 12.1 6 Norte 17 Noroeste 0 1015.2 -0.1 61
2017-11-07 00:00:00 12.8 10 Norte 26 Noroeste 0 1015.4 0.4 57
2017-11-06 23:00:00 14.3 14 Norte 32 Norte 0 1015.4 0.3 51
2017-11-06 22:00:00 14.7 17 Norte 30 Norte 0 1015.3 0.1 49
2017-11-06 21:00:00 14.1 9 Norte 22 Norte 0 1015 0.1 50
2017-11-06 20:00:00 13.7 7 Norte 11 Norte 0 1015.1 0.2 54
2017-11-06 19:00:00 12.6 0 Calma 15 Norte 0 1015.2 0 57
2017-11-06 18:00:00 14.9 9 Norte 32 Norte 0 1014.9 -0.7 49
2017-11-06 17:00:00 16.6 21 Noroeste 35 Norte 0 1014.9 -1.1 42
2017-11-06 16:00:00 17.4 23 Norte 35 Noroeste 0 1015.2 -1.2 41
2017-11-06 15:00:00 17.6 16 Noroeste 45 Norte 0 1015.6 -2.2 40
2017-11-06 14:00:00 17.5 27 Norte 42 Norte 0 1016 -2 40
2017-11-06 13:00:00 17 31 Noroeste 46 Noroeste 0 1016.4 -1.4 46
2017-11-06 12:00:00 17.1 25 Noroeste 45 Noroeste 0 1017.8 0.3 47
2017-11-06 11:00:00 16.8 18 Noroeste 48 Noroeste 0 1018 1 48
2017-11-06 10:00:00 16.6 22 Norte 41 Noroeste 0 1017.8 1.1 48
2017-11-06 09:00:00 15.9 15 Noroeste 45 Noroeste 0 1017.5 1 51
2017-11-06 08:00:00 15.2 22 Noroeste 45 Noroeste 0 1017 0.6 51
2017-11-06 07:00:00 15.5 25 Noroeste 48 Noroeste 0 1016.7 0.3 50
2017-11-06 06:00:00 15.8 21 Noroeste 45 Noroeste 0 1016.5 -0.3 47
2017-11-06 05:00:00 15.6 14 Norte 45 Norte 0 1016.4 -0.5 51
2017-11-06 04:00:00 16.1 18 Norte 48 Noroeste 0 1016.4 -0.7 49
2017-11-06 03:00:00 16.8 27 Noroeste 48 Noroeste 0 1016.8 -0.5 47
2017-11-06 02:00:00 16.5 23 Noroeste 52 Noroeste 0 1016.9 -0.2 50
2017-11-06 01:00:00 16.5 24 Noroeste 45 Noroeste 0 1017.1 0 52
2017-11-06 00:00:00 17 30 Noroeste 46 Noroeste 0 1017.3 0.6 49
2017-11-05 23:00:00 17.1 22 Noroeste 41 Noroeste 0 1017.1 0.9 48
2017-11-05 22:00:00 17.2 20 Norte 33 Norte 0 1017.1 1.2 47
2017-11-05 21:00:00 16.9 18 Noroeste 30 Norte 0 1016.7 1.6 50
2017-11-05 20:00:00 15.8 9 Norte 17 Norte 0 1016.2 1.6 60
2017-11-05 19:00:00 17 10 Norte 21 Noroeste 0 1015.9 1.6 56
2017-11-05 18:00:00 18 0 Calma 26 Norte 0 1015.1 0.9 50
2017-11-05 17:00:00 19.3 17 Noroeste 32 Norte 0 1014.6 0.5 47
2017-11-05 16:00:00 20.1 19 Noroeste 35 Noroeste 0 1014.3 0.2 48
2017-11-05 15:00:00 20.4 16 Noroeste 35 Noroeste 0 1014.2 -0.4 50
2017-11-05 14:00:00 20.5 20 Noroeste 33 Norte 0 1014.1 -0.6 52
2017-11-05 13:00:00 20.3 21 Noroeste 41 Noroeste 0 1014.1 0.1 56
2017-11-05 12:00:00 20.6 23 Noroeste 37 Norte 0 1014.6 1.3 52
2017-11-05 11:00:00 20 17 Noroeste 37 Norte 0 1014.7 2.1 54
2017-11-05 10:00:00 20.2 19 Norte 32 Norte 0 1014 2 54
2017-11-05 09:00:00 19.3 8 Noroeste 28 Noroeste 0 1013.3 1.8 70
2017-11-05 08:00:00 18 12 Noroeste 26 Oeste 0 1012.6 1.2 76
2017-11-05 07:00:00 17.6 12 Oeste 26 Oeste 0 1012 1 78
2017-11-05 06:00:00 17.2 12 Oeste 21 Oeste 0 1011.5 0.3 79
2017-11-05 05:00:00 17.6 14 Oeste 39 Oeste 0 1011.4 0.3 70
2017-11-05 04:00:00 18.1 21 Oeste 41 Oeste 0 1011 0 67
2017-11-05 03:00:00 18.1 17 Oeste 39 Oeste 0 1011.2 0 68
2017-11-05 02:00:00 18.6 23 Oeste 42 Oeste 0 1011.1 0 64
2017-11-05 01:00:00 19 23 Oeste 35 Oeste 0 1011 0.1 63
2017-11-05 00:00:00 18.6 15 Oeste 45 Oeste 0 1011.2 0.6 68
2017-11-04 23:00:00 20 31 Oeste 46 Sudoeste 0 1011.1 0.9 74
2017-11-04 22:00:00 18.6 19 Oeste 30 Sudoeste 0 1010.9 1.2 83
2017-11-04 21:00:00 14.9 2 Noroeste 9 Oeste 0 1010.6 1.7 91
2017-11-04 20:00:00 15.3 2 Oeste 8 Noroeste 0 1010.2 1.3 90
2017-11-04 19:00:00 16.5 0 Calma 28 Noroeste 0 1009.7 0.8 88
2017-11-04 18:00:00 18.8 23 Noroeste 54 Oeste 8.1 1008.9 -0.3 79
2017-11-04 17:00:00 19.9 12 Oeste 26 Oeste 1.4 1008.9 -0.9 85
2017-11-04 16:00:00 21.1 12 Sudoeste 26 Sudoeste 0 1008.9 -1.5 79
2017-11-04 15:00:00 22.2 15 Sudoeste 32 Sudoeste 0 1009.2 -1.6 74
2017-11-04 14:00:00 22.3 18 Sudoeste 30 Sudoeste 0 1009.8 -1.2 75
2017-11-04 13:00:00 21.9 19 Sudoeste 30 Sudoeste 0 1010.4 -0.7 76
2017-11-04 12:00:00 22.2 19 Sudoeste 35 Sudoeste 0 1010.8 0.8 70
2017-11-04 11:00:00 22.1 22 Sudoeste 28 Sudoeste 0 1011 1.3 73
2017-11-04 10:00:00 21.2 18 Sudoeste 26 Sudoeste 0 1011.1 2.3 78
2017-11-04 09:00:00 17.9 10 Norte 15 Norte 0 1010 0.3 95
2017-11-04 08:00:00 15.6 4 Oeste 11 Noroeste 0 1009.7 -0.3 97
2017-11-04 07:00:00 16.4 8 Este 15 Norte 0 1008.8 -1.3 97
2017-11-04 06:00:00 16.6 0 Calma -- -- 0 1009.7 -0.3 97
2017-11-04 05:00:00 17.1 0 Calma -- -- 0 1010 -0.1 96
2017-11-04 04:00:00 17.7 0 Calma -- -- 0 1010.1 0.4 96
2017-11-04 03:00:00 17.8 0 Calma 13 Oeste 0 1010 -1.6 95
2017-11-04 02:00:00 18.5 3 Noroeste 26 Norte 0 1010.1 -1.7 92
2017-11-04 01:00:00 17.4 11 Nordeste 18 Norte 0 1009.7 -1.3 95
2017-11-04 00:00:00 17.7 0 Calma 13 Oeste 0 1011.6 0.5 93
2017-11-03 23:00:00 18.2 5 Noroeste 15 Este 0 1011.8 0.9 91
2017-11-03 22:00:00 19.7 10 Nordeste 17 Este 0 1011 -0.2 87
2017-11-03 21:00:00 19.7 4 Este 13 Este 0 1011.1 -0.1 85
2017-11-03 20:00:00 18.6 4 Nordeste 11 Este 0 1010.9 0 89
2017-11-03 19:00:00 19.1 7 Este 13 Sudeste 0 1011.2 -0.1 86
2017-11-03 18:00:00 19.8 0 Calma 11 Este 0 1011.2 -0.3 81
2017-11-03 17:00:00 20.8 6 Este 13 Este 0 1010.9 -1 78
2017-11-03 16:00:00 21.6 9 Este 17 Este 0 1011.3 -1.3 75
2017-11-03 15:00:00 21.9 11 Este 17 Este 0 1011.5 -1.8 73
2017-11-03 14:00:00 22.1 13 Este 18 Este 0 1011.9 -1.7 72
2017-11-03 13:00:00 22.4 14 Este 18 Este 0 1012.6 -1 70
2017-11-03 12:00:00 21.8 9 Este 18 Este 0 1013.3 0 71
2017-11-03 11:00:00 22.1 11 Sudeste 21 Este 0 1013.6 0.2 72
2017-11-03 10:00:00 20.7 6 Nordeste 11 Este 0 1013.6 0.5 78
2017-11-03 09:00:00 17.8 0 Calma -- -- 0 1013.3 0.2 89
2017-11-03 08:00:00 14 0 Calma -- -- 0 1013.4 0.1 96
2017-11-03 07:00:00 14.4 0 Calma -- -- 0 1013.1 -0.5 96
2017-11-03 06:00:00 14.1 0 Calma -- -- 0 1013.1 -1.1 97
2017-11-03 05:00:00 14 4 Noroeste 9 Norte 0 1013.3 -1.5 96
2017-11-03 04:00:00 14.5 6 Norte 13 Norte 0 1013.6 -1.4 94
2017-11-03 03:00:00 14.6 9 Noroeste 11 Noroeste 0 1014.2 -1.3 93
2017-11-03 02:00:00 15.1 8 Noroeste 11 Noroeste 0 1014.8 -1.1 92
2017-11-03 01:00:00 15.5 9 Norte 9 Norte 0 1015 -1.2 91
2017-11-03 00:00:00 15.7 2 Norte 9 Norte 0 1015.5 -0.7 89
2017-11-02 23:00:00 17.4 0 Calma 15 Norte 0 1015.9 -0.4 81
2017-11-02 22:00:00 19.2 10 Este 17 Este 0 1016.2 0.2 76
2017-11-02 21:00:00 19.1 9 Este 17 Este 0 1016.2 0.3 76
2017-11-02 20:00:00 19.1 8 Sudeste 13 Sudeste 0 1016.3 0.3 76
2017-11-02 19:00:00 19.2 8 Este 17 Este 0 1016 -0.3 75
2017-11-02 18:00:00 19.9 11 Sudeste 18 Sudeste 0 1015.9 -0.7 73
2017-11-02 17:00:00 20.6 12 Este 22 Este 0 1016 -1.2 70
2017-11-02 16:00:00 21.7 13 Este 22 Este 0 1016.3 -1.5 65
2017-11-02 15:00:00 22.1 14 Este 22 Este 0 1016.6 -2.1 65
2017-11-02 14:00:00 22.4 15 Este 22 Este 0 1017.2 -1.7 63
2017-11-02 13:00:00 22.4 14 Este 22 Este 0 1017.8 -1.5 63
2017-11-02 12:00:00 22 14 Este 22 Este 0 1018.7 -0.6 65
2017-11-02 11:00:00 21.8 15 Este 24 Norte 0 1018.9 0.1 67
2017-11-02 10:00:00 20.8 10 Este 17 Norte 0 1019.3 0.8 71
2017-11-02 09:00:00 17.4 0 Calma -- -- 0 1019.3 0.9 90
2017-11-02 08:00:00 14.3 0 Calma -- -- 0 1018.8 0.4 94
2017-11-02 07:00:00 13.6 0 Calma -- -- 0 1018.5 -0.4 94
2017-11-02 06:00:00 13.9 0 Calma -- -- 0 1018.4 -1 93
2017-11-02 05:00:00 13.2 0 Calma -- -- 0 1018.4 -1.3 94
2017-11-02 04:00:00 13 0 Calma -- -- 0 1018.9 -1 94
2017-11-02 03:00:00 13.2 0 Calma -- -- 0 1019.4 -0.8 93
2017-11-02 02:00:00 13.5 0 Calma 13 Norte 0 1019.7 -1 92
2017-11-02 01:00:00 13.9 10 Noroeste 13 Norte 0 1019.9 -0.9 91
2017-11-02 00:00:00 13.6 6 Noroeste 11 Norte 0 1020.2 -0.1 91
2017-11-01 23:00:00 13.9 7 Noroeste 13 Norte 0 1020.7 0.4 90
2017-11-01 22:00:00 14.5 3 Noroeste 13 Norte 0 1020.8 0.8 87
2017-11-01 21:00:00 14.4 7 Norte 11 Noroeste 0 1020.3 0.6 87
2017-11-01 20:00:00 15.8 0 Calma 9 Oeste 0 1020.3 0.7 81
2017-11-01 19:00:00 17.5 4 Sudeste 15 Sudeste 0 1020 0.2 74
2017-11-01 18:00:00 19.2 8 Sudeste 17 Sudeste 0 1019.7 -0.3 66
2017-11-01 17:00:00 20.6 11 Sudeste 18 Norte 0 1019.6 -0.8 63
2017-11-01 16:00:00 21.4 11 Este 18 Este 0 1019.8 -1.2 61
2017-11-01 15:00:00 21.1 11 Este 18 Sudeste 0 1020 -1.5 64
2017-11-01 14:00:00 20.9 11 Este 21 Norte 0 1020.4 -1.3 64
2017-11-01 13:00:00 21.2 14 Este 21 Este 0 1021 -0.5 65
2017-11-01 12:00:00 21.2 12 Este 21 Este 0 1021.5 0 67
2017-11-01 11:00:00 20.5 10 Este 17 Norte 0 1021.7 0.8 70
2017-11-01 10:00:00 20.4 9 Nordeste 13 Este 0 1021.5 1.2 72
2017-11-01 09:00:00 18.4 0 Calma 8 Norte 0 1021.5 1.4 81
2017-11-01 08:00:00 15.8 2 Norte 9 Norte 0 1020.9 0.8 87
2017-11-01 07:00:00 14.3 0 Calma 9 Norte 0 1020.3 0.2 90
2017-11-01 06:00:00 14.5 0 Calma 5 Norte 0 1020.1 -0.2 88
2017-11-01 05:00:00 13.1 0 Calma 4 Norte 0 1020.1 -0.4 91
2017-11-01 04:00:00 13.2 0 Calma 8 Norte 0 1020.1 -0.3 91
2017-11-01 03:00:00 13.3 0 Calma -- -- 0 1020.3 -0.2 92
2017-11-01 02:00:00 14.1 0 Calma 11 Norte 0 1020.5 -0.2 89
2017-11-01 01:00:00 14.4 4 Norte 9 Norte 0 1020.4 -0.3 88
2017-11-01 00:00:00 15.1 3 Norte 5 Noroeste 0 1020.5 0.1 85
2017-10-31 23:00:00 15.8 0 Calma 8 Norte 0 1020.7 0.6 83
2017-10-31 22:00:00 16.6 0 Calma 13 Norte 0 1020.7 0.9 80
2017-10-31 21:00:00 16.7 10 Norte 28 Norte 0 1020.4 1 79
2017-10-31 20:00:00 16.7 10 Norte 17 Este 0 1020.1 1.1 78
2017-10-31 19:00:00 18.3 11 Nordeste 22 Este 0 1019.8 1 71
2017-10-31 18:00:00 19.5 15 Nordeste 24 Este 0 1019.4 0.6 67
2017-10-31 17:00:00 20 14 Este 26 Nordeste 0 1019 0 66
2017-10-31 16:00:00 20.8 16 Este 28 Nordeste 0 1018.8 -0.4 65
2017-10-31 15:00:00 21.2 15 Este 26 Nordeste 0 1018.8 -0.8 65
2017-10-31 14:00:00 21.9 16 Este 28 Nordeste 0 1019 -0.8 63
2017-10-31 13:00:00 21.2 20 Este 33 Este 0 1019.2 -0.2 65
2017-10-31 12:00:00 21 20 Este 32 Este 0 1019.6 0.8 66
2017-10-31 11:00:00 20.5 23 Este 35 Este 0 1019.8 1.8 70
2017-10-31 10:00:00 20 21 Este 32 Norte 0 1019.4 2.3 72
2017-10-31 09:00:00 19.1 22 Este 33 Este 0 1018.8 1.9 78
2017-10-31 08:00:00 18.6 20 Este 33 Este 0 1018 1.3 80
2017-10-31 07:00:00 18.7 19 Este 30 Este 0 1017.1 0.6 81
2017-10-31 06:00:00 18.4 19 Este 35 Este 0 1016.9 0.1 82
2017-10-31 05:00:00 16.8 12 Este 21 Este 0 1016.7 -0.2 90
2017-10-31 04:00:00 13.7 0 Calma 8 Norte 0 1016.5 -0.5 91
2017-10-31 03:00:00 12.5 0 Calma 9 Norte 0 1016.8 -0.5 92
2017-10-31 02:00:00 13.9 3 Norte 9 Norte 0 1016.9 -0.2 90
2017-10-31 01:00:00 14.6 6 Norte 13 Norte 0 1017 0 90
2017-10-31 00:00:00 15.1 11 Norte 13 Norte 0 1017.3 0.8 89
2017-10-30 23:00:00 15 7 Norte 15 Norte 0 1017.1 1 89
2017-10-30 22:00:00 15.3 3 Norte 11 Noroeste 0 1017 1.4 87
2017-10-30 21:00:00 16.1 3 Norte 22 Norte 0 1016.5 1.6 84
2017-10-30 20:00:00 16.7 11 Norte 17 Norte 0 1016.1 1.7 83
2017-10-30 19:00:00 18.9 10 Norte 21 Norte 0 1015.6 1.5 74
2017-10-30 18:00:00 19.2 12 Este 18 Este 0 1014.9 0.9 73
2017-10-30 17:00:00 20.5 10 Nordeste 18 Este 0 1014.4 0.3 69
2017-10-30 16:00:00 21.3 11 Este 18 Este 0 1014.1 -0.5 67
2017-10-30 15:00:00 21.7 11 Este 18 Este 0 1014 -1.2 65
2017-10-30 14:00:00 21.4 8 Este 15 Sur 0 1014.1 -1.4 66
2017-10-30 13:00:00 22.4 9 Este 18 Este 0 1014.6 -0.9 62
2017-10-30 12:00:00 21.6 10 Este 17 Este 0 1015.2 0 61
2017-10-30 11:00:00 21 8 Este 18 Nordeste 0 1015.5 0.8 66
2017-10-30 10:00:00 20.1 10 Nordeste 17 Nordeste 0 1015.5 1.2 70
2017-10-30 09:00:00 17.7 3 Norte 11 Norte 0 1015.2 1 90
2017-10-30 08:00:00 14 0 Calma 11 Noroeste 0 1014.7 0.5 96
2017-10-30 07:00:00 13.3 0 Calma -- -- 0 1014.3 0.1 97
2017-10-30 06:00:00 13.3 0 Calma -- -- 0 1014.2 -0.4 98
2017-10-30 05:00:00 13.4 0 Calma -- -- 0 1014.2 -0.7 98
2017-10-30 04:00:00 13.4 0 Calma -- -- 0 1014.2 -1 98
2017-10-30 03:00:00 13.8 0 Calma -- -- 0 1014.6 -0.9 97
2017-10-30 02:00:00 13.8 0 Calma -- -- 0 1014.9 -1 95
2017-10-30 01:00:00 15.1 0 Calma 5 Noroeste 0 1015.2 -1 92
2017-10-30 00:00:00 16 9 Noroeste 15 Oeste 0 1015.5 -0.9 93
2017-10-29 23:00:00 16.4 10 Noroeste 15 Oeste 0 1015.9 -0.5 92
2017-10-29 22:00:00 17.2 9 Noroeste 17 Oeste 0 1016.2 -0.2 90
2017-10-29 21:00:00 17.1 9 Noroeste 17 Noroeste 0 1016.4 0 91
2017-10-29 20:00:00 17.8 7 Oeste 17 Sudoeste 0 1016.4 -0.1 88
2017-10-29 19:00:00 19.4 10 Sudoeste 18 Sudoeste 0 1016.4 -0.6 84
2017-10-29 18:00:00 20.1 11 Sudoeste 21 Sudoeste 0 1016.4 -1 79
2017-10-29 17:00:00 20.8 14 Sudoeste 21 Sudoeste 0 1016.5 -1.5 82
2017-10-29 16:00:00 21.2 17 Sudoeste 24 Sur 0 1017 -1.8 80
2017-10-29 15:00:00 21.2 19 Sur 30 Sur 0 1017.4 -2.4 74
2017-10-29 14:00:00 21.4 19 Sur 26 Sudoeste 0 1018 -2.2 80
2017-10-29 13:00:00 20.1 20 Sur 28 Sur 0 1018.8 -1.5 84
2017-10-29 12:00:00 19.4 9 Oeste 26 Sudoeste 0.2 1019.8 -0.2 89
2017-10-29 11:00:00 20.3 19 Sudoeste 26 Oeste 0.3 1020.2 0.4 85
2017-10-29 10:00:00 20.3 17 Oeste 26 Oeste 0 1020.3 0.7 82
2017-10-29 09:00:00 19.5 0 Calma -- -- 0 1020 0.4 84
2017-10-29 08:00:00 14.7 0 Calma -- -- 0 1019.8 0.2 93
2017-10-29 07:00:00 13.8 0 Calma -- -- 0 1019.6 -0.4 96
2017-10-29 06:00:00 13.7 0 Calma 5 Noroeste 0 1019.6 -0.6 96
2017-10-29 05:00:00 14.2 0 Calma 8 Norte 0 1019.6 -1 95
2017-10-29 04:00:00 14 3 Noroeste 11 Norte 0 1020 -1 94
2017-10-29 03:00:00 14.8 4 Norte 11 Noroeste 0 1020.2 -1.1 92
2017-10-29 02:00:00 14.9 3 Norte 9 Norte 0 1020.6 -0.9 92
2017-10-29 01:00:00 15.5 8 Norte 13 Noroeste 0 1021.3 -0.7 90
2017-10-29 00:00:00 15.8 6 Noroeste 9 Noroeste 0 1021.5 -0.7 90
2017-10-28 23:00:00 17.2 2 Norte 9 Noroeste 0 1021.8 -0.2 90
2017-10-28 22:00:00 18.6 3 Noroeste 9 Oeste 0 1022 0.5 88
2017-10-28 21:00:00 19.7 0 Calma 13 Oeste 0 1022.2 0.9 81
2017-10-28 20:00:00 19.6 3 Noroeste 8 Noroeste 0 1022 0.8 84
2017-10-28 19:00:00 20.6 0 Calma 18 Sudeste 0 1021.5 0.1 73
2017-10-28 18:00:00 20.9 14 Sudeste 22 Sudeste 0 1021.3 -0.6 75
2017-10-28 17:00:00 21.1 13 Nordeste 21 Este 0 1021.2 -1.2 77
2017-10-28 16:00:00 21.5 14 Este 21 Este 0 1021.4 -1.5 71
2017-10-28 15:00:00 21.2 7 Este 15 Este 0.3 1021.9 -1.3 76
2017-10-28 14:00:00 21.6 8 Nordeste 30 Norte 0 1022.4 -0.8 73
2017-10-28 13:00:00 21.2 13 Nordeste 21 Nordeste 0 1022.9 -0.1 76
2017-10-28 12:00:00 21.4 2 Norte 17 Norte 0 1023.2 0.5 74
2017-10-28 11:00:00 19.9 0 Calma 13 Norte 0 1023.2 1.1 84
2017-10-28 10:00:00 17.8 3 Norte 8 Sudoeste 0 1023 1.2 93
2017-10-28 09:00:00 15.5 0 Calma 13 Noroeste 0 1022.7 1.1 95
2017-10-28 08:00:00 15.5 0 Calma 8 Norte 0 1022.1 0.6 98
2017-10-28 07:00:00 15.8 4 Norte 11 Norte 0 1021.8 0.2 98
2017-10-28 06:00:00 16 0 Calma -- -- 0 1021.6 -0.3 97
2017-10-28 05:00:00 16.1 0 Calma -- -- 0 1021.5 -0.5 98
2017-10-28 04:00:00 16.2 0 Calma -- -- 0 1021.6 -0.5 97
2017-10-28 03:00:00 16.6 0 Calma 17 Nordeste 0 1021.9 -0.2 98
2017-10-28 02:00:00 15.8 2 Nordeste 13 Norte 0 1022 -0.1 97
2017-10-28 01:00:00 16.1 7 Norte 21 Norte 0 1022.1 0 95
2017-10-28 00:00:00 15.9 6 Norte 13 Norte 0 1022.1 0.2 93
2017-10-27 23:00:00 16.7 0 Calma 15 Este 0 1022.1 0.7 93
2017-10-27 22:00:00 17.7 4 Nordeste 17 Nordeste 0 1022.1 1.4 90
2017-10-27 21:00:00 17.3 0 Calma 11 Norte 0 1021.9 1.2 82
2017-10-27 20:00:00 19 5 Norte 13 Oeste 0 1021.4 0.6 85
2017-10-27 19:00:00 20.9 9 Sudoeste 22 Sudoeste 0 1020.7 -0.5 86
2017-10-27 18:00:00 22 16 Sudoeste 26 Sudoeste 0 1020.7 -1.1 82
2017-10-27 17:00:00 22.6 21 Sudoeste 28 Sudoeste 0 1020.8 -2.1 79
2017-10-27 16:00:00 23.2 20 Sudoeste 26 Sudoeste 0 1021.2 -2.7 73
2017-10-27 15:00:00 23.2 19 Sudoeste 24 Sudoeste 0 1021.8 -2.4 77
2017-10-27 14:00:00 23 18 Sudoeste 24 Sudoeste 0 1022.9 -1.6 77
2017-10-27 13:00:00 22.6 15 Sudoeste 24 Sudoeste 0 1023.9 -0.6 80
2017-10-27 12:00:00 22 13 Sur 17 Sur 0 1024.2 0 83
2017-10-27 11:00:00 20.7 8 Sur 11 Sur 0 1024.5 0.5 87
2017-10-27 10:00:00 18.2 0 Calma 9 Noroeste 0 1024.5 0.4 94
2017-10-27 09:00:00 15.2 0 Calma 9 Noroeste 0 1024.2 0.3 99
2017-10-27 08:00:00 14.3 0 Calma 8 Norte 0 1024 -0.2 99
2017-10-27 07:00:00 14 6 Norte 9 Noroeste 0 1024.1 -0.5 98
2017-10-27 06:00:00 14.2 0 Calma 8 Noroeste 0 1023.9 -1.2 98
2017-10-27 05:00:00 14.2 2 Norte 5 Norte 0 1024.2 -1.3 98
2017-10-27 04:00:00 14.7 0 Calma 5 Norte 0 1024.6 -1 97
2017-10-27 03:00:00 14.2 0 Calma 9 Noroeste 0 1025.1 -0.7 96
2017-10-27 02:00:00 15 0 Calma 5 Oeste 0 1025.5 -0.3 97
2017-10-27 01:00:00 15.8 8 Noroeste 13 Noroeste 0 1025.6 -0.2 96
2017-10-27 00:00:00 15.7 4 Norte 13 Norte 0 1025.8 0.1 96
2017-10-26 23:00:00 16.2 0 Calma 9 Norte 0 1025.8 0.5 95
2017-10-26 22:00:00 16.9 6 Noroeste 11 Norte 0 1025.8 0.8 94
2017-10-26 21:00:00 17.5 9 Noroeste 11 Norte 0 1025.7 1 92
2017-10-26 20:00:00 19.1 0 Calma 8 Sudeste 0 1025.3 0.8 89
2017-10-26 19:00:00 21 6 Sudeste 13 Sudeste 0 1025 0.5 81
2017-10-26 18:00:00 22.7 11 Sudeste 15 Sudeste 0 1024.7 0 74
2017-10-26 17:00:00 24 9 Sur 17 Sur 0 1024.5 -0.7 68
2017-10-26 16:00:00 24.2 10 Sur 17 Sur 0 1024.5 -1.1 69
2017-10-26 15:00:00 24.1 11 Sur 18 Sur 0 1024.7 -0.9 69
2017-10-26 14:00:00 23.9 12 Sur 17 Sur 0 1025.2 -0.1 68
2017-10-26 13:00:00 23.3 10 Sudoeste 17 Sudoeste 0 1025.6 0.3 73
2017-10-26 12:00:00 22.7 12 Sudoeste 17 Sudoeste 0 1025.6 0.8 75
2017-10-26 11:00:00 22.4 7 Sur 13 Sudoeste 0 1025.3 1 76
2017-10-26 10:00:00 19.9 0 Calma 8 Noroeste 0 1025.3 1.1 91
2017-10-26 09:00:00 16.1 0 Calma 13 Noroeste 0 1024.8 0.9 97
2017-10-26 08:00:00 15.3 7 Noroeste 9 Noroeste 0 1024.3 0.4 97
2017-10-26 07:00:00 15.1 3 Noroeste 11 Norte 0 1024.2 0.1 97
2017-10-26 06:00:00 15.1 6 Norte 9 Norte 0 1023.9 -0.4 97
2017-10-26 05:00:00 15 7 Noroeste 9 Noroeste 0 1023.9 -0.4 96
2017-10-26 04:00:00 -- 8 Noroeste 9 Norte 0 1024.1 -0.4 --
2017-10-26 03:00:00 14.9 0 Calma 8 Noroeste 0 1024.3 0 96
2017-10-26 02:00:00 15.7 4 Noroeste 9 Noroeste 0 1024.3 0.1 95
2017-10-26 01:00:00 15.8 7 Noroeste 9 Noroeste 0 1024.5 0.7 94
2017-10-26 00:00:00 16.4 6 Noroeste 8 Oeste 0 1024.3 0.7 92
2017-10-25 23:00:00 17.9 0 Calma 11 Sudoeste 0 1024.2 0.8 90
2017-10-25 22:00:00 20.2 9 Sudoeste 15 Sudoeste 0 1023.8 0.8 81
2017-10-25 21:00:00 20.2 10 Sudoeste 17 Sudoeste 0 1023.6 0.9 82
2017-10-25 20:00:00 21.1 10 Sudoeste 17 Sudoeste 0 1023.4 0.9 79
2017-10-25 19:00:00 21.7 13 Sudoeste 21 Sudoeste 0 1023 0.5 78
2017-10-25 18:00:00 22.8 14 Sudoeste 22 Sudoeste 0 1022.7 0 74
2017-10-25 17:00:00 23.4 15 Sudoeste 22 Sudoeste 0 1022.5 -0.7 71
2017-10-25 16:00:00 23.6 17 Sudoeste 22 Sudoeste 0 1022.5 -1 70
2017-10-25 15:00:00 23.6 17 Sudoeste 24 Sudoeste 0 1022.7 -0.8 71
2017-10-25 14:00:00 23.7 18 Sudoeste 26 Sudoeste 0 1023.2 0 71
2017-10-25 13:00:00 23.4 17 Sudoeste 24 Sudoeste 0 1023.5 0.8 71
2017-10-25 12:00:00 23.1 18 Sudoeste 24 Sudoeste 0 1023.5 1.5 70
2017-10-25 11:00:00 22.5 16 Sudoeste 22 Sudoeste 0 1023.2 1.7 72
2017-10-25 10:00:00 21.3 13 Sudoeste 21 Sudoeste 0 1022.7 1.4 80
2017-10-25 09:00:00 18.9 5 Oeste 15 Oeste 0 1022 0.7 89
2017-10-25 08:00:00 17.8 6 Oeste 15 Oeste 0 1021.5 0.2 94
2017-10-25 07:00:00 17.5 10 Oeste 17 Oeste 0 1021.3 -0.4 93
2017-10-25 06:00:00 18.6 10 Oeste 15 Oeste 0 1021.3 -0.5 89
2017-10-25 05:00:00 17.9 7 Oeste 21 Sudoeste 0 1021.3 -0.6 90
2017-10-25 04:00:00 19.2 15 Sudoeste 21 Sudoeste 0 1021.7 -0.4 85
2017-10-25 03:00:00 19.3 14 Sudoeste 22 Sudoeste 0 1021.8 -0.4 85
2017-10-25 02:00:00 19.6 14 Sudoeste 21 Sudoeste 0 1021.9 -0.3 82
2017-10-25 01:00:00 19.7 13 Sudoeste 18 Sudoeste 0 1022.1 0 81
2017-10-25 00:00:00 19.6 11 Sudoeste 18 Sudoeste 0 1022.2 0.1 82